Time;durP1;ratioP1;P1;durP2;ratioP2;P2;SDS_P1;SDS_P2;PMS_P1;PMS_P2;Temp;Humidity;BMP_temperature;BMP_pressure;BME280_temperature;BME280_humidity;BME280_pressure;Samples;Min_cycle;Max_cycle;Signal;HPM_P1;HPM_P2
2021/09/13 00:00:16;;;;;;;3.75;3.20;;;19.40;61.10;;;;;;5052124;28;20103;-70
2021/09/13 00:02:42;;;;;;;5.10;3.70;;;19.30;61.10;;;;;;5051942;28;20047;-71
2021/09/13 00:05:08;;;;;;;3.80;3.17;;;19.30;61.50;;;;;;5037188;28;20028;-71
2021/09/13 00:07:34;;;;;;;4.10;3.70;;;19.30;61.40;;;;;;5051994;28;20013;-70
2021/09/13 00:10:00;;;;;;;4.18;3.75;;;19.30;61.70;;;;;;5051986;28;20378;-71
2021/09/13 00:12:25;;;;;;;5.60;3.83;;;19.30;61.80;;;;;;5052015;28;20072;-71
2021/09/13 00:14:51;;;;;;;4.82;3.63;;;19.20;61.90;;;;;;5051724;28;20055;-71
2021/09/13 00:17:17;;;;;;;7.00;3.22;;;19.20;61.90;;;;;;5051962;28;20025;-68
2021/09/13 00:19:43;;;;;;;3.45;3.15;;;19.20;61.90;;;;;;5052042;28;20095;-69
2021/09/13 00:22:09;;;;;;;4.55;3.75;;;19.20;62.00;;;;;;5051614;28;20036;-69
2021/09/13 00:24:34;;;;;;;4.63;3.78;;;19.20;62.40;;;;;;5051545;28;20025;-71
2021/09/13 00:27:00;;;;;;;3.67;3.17;;;19.10;62.30;;;;;;5051694;28;20051;-71
2021/09/13 00:29:26;;;;;;;8.23;3.40;;;19.20;62.10;;;;;;5051778;28;20056;-69
2021/09/13 00:31:52;;;;;;;4.93;3.72;;;19.10;61.90;;;;;;5051401;28;20076;-69
2021/09/13 00:34:18;;;;;;;5.43;3.08;;;19.10;62.00;;;;;;5051812;28;20435;-69
2021/09/13 00:36:43;;;;;;;4.40;3.45;;;19.10;62.00;;;;;;5051499;28;20083;-69
2021/09/13 00:39:09;;;;;;;4.93;4.32;;;19.10;62.10;;;;;;5049382;28;20028;-71
2021/09/13 00:41:35;;;;;;;3.60;3.30;;;19.00;62.30;;;;;;5033871;28;20047;-69
2021/09/13 00:44:02;;;;;;;6.13;3.28;;;19.10;62.30;;;;;;5040132;28;20030;-69
2021/09/13 00:46:27;;;;;;;6.90;3.30;;;19.10;62.50;;;;;;5048495;28;20492;-69
2021/09/13 00:48:53;;;;;;;6.55;2.97;;;19.00;62.30;;;;;;5051487;28;20025;-69
2021/09/13 00:51:19;;;;;;;6.82;3.70;;;19.00;62.20;;;;;;5051485;28;20511;-70
2021/09/13 00:53:45;;;;;;;3.70;3.28;;;19.00;62.50;;;;;;5051397;28;20009;-69
2021/09/13 00:56:11;;;;;;;5.95;3.63;;;19.00;62.50;;;;;;5051255;28;20517;-70
2021/09/13 00:58:37;;;;;;;5.07;3.53;;;18.90;62.50;;;;;;5051273;28;20036;-70
2021/09/13 01:01:04;;;;;;;5.60;3.67;;;19.00;62.60;;;;;;5051461;28;20025;-69
2021/09/13 01:03:30;;;;;;;7.05;4.15;;;18.90;62.70;;;;;;5051317;28;20039;-69
2021/09/13 01:05:56;;;;;;;7.18;3.88;;;18.90;62.70;;;;;;5038095;28;20496;-69
2021/09/13 01:08:22;;;;;;;4.07;3.58;;;18.90;62.60;;;;;;5051160;28;20163;-69
2021/09/13 01:10:50;;;;;;;7.28;3.42;;;18.90;62.70;;;;;;5051464;28;20150;-70
2021/09/13 01:13:15;;;;;;;6.63;3.60;;;18.80;62.90;;;;;;5051140;28;20025;-69
2021/09/13 01:15:42;;;;;;;8.70;3.75;;;18.80;63.00;;;;;;5050854;28;20025;-70
2021/09/13 01:18:09;;;;;;;4.43;3.53;;;18.80;63.30;;;;;;5051062;28;20167;-70
2021/09/13 01:20:35;;;;;;;9.00;4.10;;;18.80;63.10;;;;;;5051097;28;20041;-70
2021/09/13 01:23:08;;;;;;;4.93;3.80;;;18.80;63.10;;;;;;5051045;28;20028;-69
2021/09/13 01:25:37;;;;;;;6.07;4.45;;;18.80;63.30;;;;;;5050762;28;20067;-69
2021/09/13 01:28:04;;;;;;;5.68;4.00;;;18.80;63.60;;;;;;5051197;28;20364;-70
2021/09/13 01:30:31;;;;;;;7.47;4.05;;;18.80;63.50;;;;;;5050593;28;20041;-69
2021/09/13 01:32:56;;;;;;;5.05;3.63;;;18.80;63.60;;;;;;5050476;28;20029;-70
2021/09/13 01:35:22;;;;;;;7.85;3.67;;;18.70;63.60;;;;;;5050749;28;20408;-70
2021/09/13 01:37:49;;;;;;;5.28;4.25;;;18.70;63.50;;;;;;5050799;28;20048;-70
2021/09/13 01:40:15;;;;;;;4.80;3.55;;;18.70;63.70;;;;;;5048711;28;20134;-70
2021/09/13 01:42:41;;;;;;;5.28;3.58;;;18.70;63.80;;;;;;5050802;28;20028;-71
2021/09/13 01:45:07;;;;;;;5.22;3.92;;;18.70;63.80;;;;;;5050659;28;20032;-70
2021/09/13 01:47:33;;;;;;;5.57;3.85;;;18.70;63.90;;;;;;5050947;28;20098;-70
2021/09/13 01:49:59;;;;;;;4.65;3.78;;;18.70;63.80;;;;;;5050664;28;20105;-71
2021/09/13 01:52:25;;;;;;;11.60;4.63;;;18.60;63.80;;;;;;5050802;28;20438;-70
2021/09/13 01:54:50;;;;;;;4.88;3.90;;;18.60;63.90;;;;;;5050692;28;20501;-70
2021/09/13 01:57:16;;;;;;;16.42;4.80;;;18.60;63.80;;;;;;5053357;28;20060;-70
2021/09/13 01:59:42;;;;;;;7.80;4.53;;;18.60;64.10;;;;;;5054415;28;20470;-70
2021/09/13 02:02:08;;;;;;;4.97;3.97;;;18.60;64.10;;;;;;5054301;28;20032;-70
2021/09/13 02:04:33;;;;;;;5.45;4.50;;;18.60;64.30;;;;;;5053904;28;20389;-70
2021/09/13 02:06:59;;;;;;;8.02;4.70;;;18.60;64.60;;;;;;5054266;28;20547;-70
2021/09/13 02:09:25;;;;;;;13.73;3.85;;;18.50;64.40;;;;;;5054079;28;20055;-70
2021/09/13 02:11:50;;;;;;;12.75;4.78;;;18.50;64.40;;;;;;5036300;28;20508;-70
2021/09/13 02:14:16;;;;;;;6.32;4.20;;;18.50;64.40;;;;;;5054186;28;20028;-70
2021/09/13 02:16:42;;;;;;;10.95;4.63;;;18.50;64.50;;;;;;5053754;28;20461;-71
2021/09/13 02:19:08;;;;;;;5.05;3.53;;;18.50;64.50;;;;;;5054574;28;20025;-70
2021/09/13 02:21:34;;;;;;;5.63;3.92;;;18.40;64.50;;;;;;5054017;28;20024;-70
2021/09/13 02:23:59;;;;;;;6.07;4.50;;;18.50;64.80;;;;;;5053901;28;20063;-71
2021/09/13 02:26:25;;;;;;;9.45;4.75;;;18.50;64.80;;;;;;5053765;28;20033;-70
2021/09/13 02:28:51;;;;;;;6.53;4.50;;;18.40;64.70;;;;;;5053922;28;20374;-70
2021/09/13 02:31:16;;;;;;;6.28;4.97;;;18.40;64.80;;;;;;5053641;28;20041;-70
2021/09/13 02:33:42;;;;;;;5.85;4.70;;;18.40;64.80;;;;;;5036048;28;20037;-70
2021/09/13 02:36:08;;;;;;;11.43;4.82;;;18.40;64.80;;;;;;5053921;28;20032;-70
2021/09/13 02:38:34;;;;;;;5.55;3.97;;;18.40;64.80;;;;;;5052753;28;20026;-70
2021/09/13 02:40:59;;;;;;;7.35;4.80;;;18.40;65.00;;;;;;5052861;28;20126;-71
2021/09/13 02:43:26;;;;;;;6.78;4.78;;;18.40;65.00;;;;;;5053484;28;20052;-70
2021/09/13 02:45:52;;;;;;;6.30;4.25;;;18.40;65.10;;;;;;5053597;28;20093;-70
2021/09/13 02:48:18;;;;;;;6.53;4.93;;;18.30;65.00;;;;;;5053673;28;20468;-70
2021/09/13 02:50:44;;;;;;;5.15;4.18;;;18.30;65.20;;;;;;5053440;28;20124;-70
2021/09/13 02:53:09;;;;;;;4.55;4.05;;;18.40;65.20;;;;;;5053366;28;20017;-70
2021/09/13 02:55:35;;;;;;;5.43;4.32;;;18.30;65.20;;;;;;5053463;28;20036;-70
2021/09/13 02:58:01;;;;;;;6.47;4.38;;;18.30;65.30;;;;;;5053406;28;20071;-69
2021/09/13 03:00:27;;;;;;;5.50;3.90;;;18.30;65.20;;;;;;5035319;28;20552;-70
2021/09/13 03:02:53;;;;;;;6.13;5.15;;;18.30;65.20;;;;;;5053190;28;20043;-70
2021/09/13 03:05:18;;;;;;;7.47;4.68;;;18.30;65.50;;;;;;5035005;28;20108;-70
2021/09/13 03:07:44;;;;;;;6.47;4.32;;;18.30;65.60;;;;;;5052316;28;20033;-70
2021/09/13 03:10:10;;;;;;;9.43;5.20;;;18.30;65.60;;;;;;5053164;28;20025;-70
2021/09/13 03:12:36;;;;;;;7.97;4.90;;;18.30;65.60;;;;;;5053128;28;20052;-70
2021/09/13 03:15:04;;;;;;;7.40;5.07;;;18.30;65.60;;;;;;5053045;28;20106;-70
2021/09/13 03:17:30;;;;;;;7.00;4.57;;;18.30;65.70;;;;;;5052655;28;20024;-70
2021/09/13 03:19:56;;;;;;;5.88;4.47;;;18.30;65.70;;;;;;5044273;28;20039;-70
2021/09/13 03:22:22;;;;;;;7.38;4.53;;;18.30;65.80;;;;;;5052752;28;20032;-70
2021/09/13 03:24:47;;;;;;;7.05;5.43;;;18.30;65.90;;;;;;5052574;28;20037;-71
2021/09/13 03:27:13;;;;;;;7.60;5.10;;;18.30;65.90;;;;;;5052769;28;20497;-70
2021/09/13 03:29:39;;;;;;;4.95;4.03;;;18.30;66.00;;;;;;5052240;28;20057;-70
2021/09/13 03:32:05;;;;;;;5.30;4.20;;;18.30;65.90;;;;;;5052430;28;20049;-70
2021/09/13 03:34:31;;;;;;;8.48;5.00;;;18.30;65.80;;;;;;5052118;28;20025;-71
2021/09/13 03:36:59;;;;;;;7.63;4.25;;;18.30;65.80;;;;;;5052474;28;20126;-70
2021/09/13 03:39:27;;;;;;;5.53;4.72;;;18.30;66.00;;;;;;5050359;28;20485;-71
2021/09/13 03:41:53;;;;;;;5.78;4.13;;;18.30;66.00;;;;;;5051833;28;20032;-71
2021/09/13 03:44:19;;;;;;;7.22;4.55;;;18.30;66.00;;;;;;5052430;28;20025;-70
2021/09/13 03:46:45;;;;;;;10.25;5.55;;;18.30;66.20;;;;;;5052174;28;20111;-71
2021/09/13 03:49:11;;;;;;;6.65;5.50;;;18.30;66.40;;;;;;5052228;28;20409;-71
2021/09/13 03:51:36;;;;;;;6.82;4.80;;;18.30;66.40;;;;;;5052214;28;20408;-70
2021/09/13 03:54:03;;;;;;;5.28;4.50;;;18.40;66.40;;;;;;5051807;28;20037;-70
2021/09/13 03:56:29;;;;;;;6.72;5.07;;;18.40;66.40;;;;;;5052048;28;20029;-70
2021/09/13 03:58:55;;;;;;;7.25;5.40;;;18.40;66.80;;;;;;5034113;28;20040;-70
2021/09/13 04:01:22;;;;;;;7.15;5.07;;;18.40;66.90;;;;;;5052391;28;20021;-70
2021/09/13 04:03:50;;;;;;;8.13;5.50;;;18.50;66.70;;;;;;5051733;28;20059;-70
2021/09/13 04:11:54;;;;;;;7.32;5.50;;;18.60;66.30;;;;;;5051953;28;20083;-70
2021/09/13 04:14:25;;;;;;;6.93;5.60;;;18.60;66.30;;;;;;5033949;28;20025;-70
2021/09/13 04:16:52;;;;;;;20.25;6.07;;;18.60;66.40;;;;;;5051672;28;20071;-71
2021/09/13 04:19:18;;;;;;;12.05;6.07;;;18.60;66.50;;;;;;5051533;28;20509;-71
2021/09/13 04:21:44;;;;;;;8.20;5.45;;;18.60;66.80;;;;;;5033690;28;20020;-70
2021/09/13 04:24:10;;;;;;;12.60;5.13;;;18.60;66.50;;;;;;5051571;28;20048;-70
2021/09/13 04:26:36;;;;;;;11.32;4.93;;;18.70;66.50;;;;;;5033557;28;20025;-70
2021/09/13 04:29:03;;;;;;;5.57;4.47;;;18.70;66.40;;;;;;5051435;28;20052;-70
2021/09/13 04:31:28;;;;;;;7.28;5.07;;;18.70;66.30;;;;;;5051266;28;20078;-70
2021/09/13 04:33:54;;;;;;;7.22;5.28;;;18.70;66.30;;;;;;5033708;28;20013;-71
2021/09/13 04:36:20;;;;;;;7.13;5.55;;;18.70;66.20;;;;;;5051489;28;20029;-70
2021/09/13 04:38:47;;;;;;;6.50;5.20;;;18.80;66.10;;;;;;5049275;28;20036;-71
2021/09/13 04:41:13;;;;;;;7.00;5.18;;;18.80;66.70;;;;;;5051448;28;20052;-71
2021/09/13 04:43:39;;;;;;;10.90;5.28;;;18.80;65.80;;;;;;5033611;28;20418;-70
2021/09/13 04:46:05;;;;;;;6.60;5.10;;;18.80;65.70;;;;;;5051267;28;20024;-71
2021/09/13 04:48:31;;;;;;;7.88;5.13;;;18.70;65.60;;;;;;5051593;28;20470;-71
2021/09/13 04:50:56;;;;;;;9.65;5.88;;;18.70;65.70;;;;;;5051336;28;20029;-71
2021/09/13 04:53:22;;;;;;;10.10;5.90;;;18.70;65.90;;;;;;5051687;28;20424;-70
2021/09/13 04:55:48;;;;;;;8.88;6.15;;;18.70;66.20;;;;;;5051510;28;20074;-72
2021/09/13 04:58:14;;;;;;;9.25;5.97;;;18.70;66.30;;;;;;5051348;28;20494;-71
2021/09/13 05:00:40;;;;;;;8.50;5.80;;;18.70;66.40;;;;;;5051224;28;20040;-71
2021/09/13 05:03:06;;;;;;;11.50;6.13;;;18.70;66.20;;;;;;5035019;28;20450;-71
2021/09/13 05:05:32;;;;;;;8.88;5.88;;;18.70;66.20;;;;;;5033189;28;20100;-71
2021/09/13 05:07:57;;;;;;;14.13;5.97;;;18.80;66.30;;;;;;5051158;28;20025;-71
2021/09/13 05:10:23;;;;;;;13.18;6.50;;;18.80;66.30;;;;;;5051123;28;20096;-71
2021/09/13 05:12:49;;;;;;;16.13;6.50;;;18.80;67.20;;;;;;5033182;28;20029;-71
2021/09/13 05:15:15;;;;;;;10.32;5.90;;;18.80;66.40;;;;;;5051268;28;20378;-71
2021/09/13 05:17:40;;;;;;;8.98;5.75;;;18.90;66.40;;;;;;5051403;28;20029;-71
2021/09/13 05:20:07;;;;;;;9.02;6.07;;;18.90;66.30;;;;;;5051947;28;20469;-71
2021/09/13 05:22:33;;;;;;;11.68;6.28;;;18.90;66.40;;;;;;5052064;28;20025;-71
2021/09/13 05:24:58;;;;;;;8.43;5.38;;;18.90;66.30;;;;;;5051897;28;20036;-71
2021/09/13 05:27:24;;;;;;;8.13;5.32;;;18.90;66.30;;;;;;5051697;28;20044;-71
2021/09/13 05:29:50;;;;;;;7.90;5.25;;;18.90;66.20;;;;;;5051863;28;20017;-71
2021/09/13 05:32:16;;;;;;;7.75;5.25;;;19.00;66.20;;;;;;5054573;28;20451;-71
2021/09/13 05:34:41;;;;;;;12.65;5.60;;;19.00;66.30;;;;;;5055832;28;20189;-73
2021/09/13 05:37:08;;;;;;;8.02;5.22;;;19.00;66.20;;;;;;5055917;28;20025;-71
2021/09/13 05:39:35;;;;;;;9.43;6.22;;;19.00;66.30;;;;;;5055428;28;20021;-71
2021/09/13 05:42:01;;;;;;;15.73;6.63;;;19.00;66.60;;;;;;5046846;28;20026;-71
2021/09/13 05:44:26;;;;;;;9.57;6.20;;;19.10;66.70;;;;;;5056543;28;20084;-72
2021/09/13 05:46:52;;;;;;;13.57;6.97;;;19.10;66.80;;;;;;5054995;28;20030;-71
2021/09/13 05:49:18;;;;;;;18.10;7.53;;;19.10;66.80;;;;;;5055440;28;20017;-71
2021/09/13 05:51:50;;;;;;;21.88;6.95;;;19.20;66.80;;;;;;5055294;28;20025;-71
2021/09/13 05:54:21;;;;;;;15.35;6.82;;;19.20;66.70;;;;;;5055523;28;20048;-71
2021/09/13 05:56:55;;;;;;;15.23;6.75;;;19.30;66.70;;;;;;5055584;28;20028;-72
2021/09/13 05:59:22;;;;;;;11.35;6.10;;;19.30;66.70;;;;;;5055312;28;20029;-71
2021/09/13 06:01:49;;;;;;;13.32;7.00;;;19.30;66.40;;;;;;5055078;28;20071;-71
2021/09/13 06:04:15;;;;;;;10.98;7.32;;;19.40;66.30;;;;;;5055263;28;20036;-71
2021/09/13 06:06:41;;;;;;;12.45;7.30;;;19.50;66.40;;;;;;5037335;28;20131;-71
2021/09/13 06:09:08;;;;;;;10.10;6.35;;;19.50;66.40;;;;;;5055267;28;20143;-71
2021/09/13 06:11:34;;;;;;;13.05;6.68;;;19.50;66.30;;;;;;5055186;28;20519;-71
2021/09/13 06:14:00;;;;;;;12.77;6.80;;;19.60;66.30;;;;;;5055022;28;20096;-71
2021/09/13 06:16:26;;;;;;;13.77;7.38;;;19.70;66.30;;;;;;5055105;28;20075;-71
2021/09/13 06:18:52;;;;;;;13.23;6.80;;;19.70;66.20;;;;;;5055019;28;20029;-72
2021/09/13 06:21:18;;;;;;;13.63;7.20;;;19.80;66.10;;;;;;5054964;28;20013;-71
2021/09/13 06:23:45;;;;;;;10.10;7.20;;;19.80;65.90;;;;;;5055066;28;20139;-71
2021/09/13 06:26:12;;;;;;;15.30;7.07;;;19.90;65.80;;;;;;5054611;28;20102;-71
2021/09/13 06:28:38;;;;;;;13.57;6.82;;;20.00;65.80;;;;;;5054752;28;20025;-71
2021/09/13 06:31:04;;;;;;;12.55;7.47;;;20.00;65.70;;;;;;5054546;28;20124;-71
2021/09/13 06:33:31;;;;;;;10.35;6.03;;;20.10;65.60;;;;;;5054707;28;20081;-70
2021/09/13 06:35:57;;;;;;;10.02;6.95;;;20.20;65.50;;;;;;5036741;28;20120;-70
2021/09/13 06:38:23;;;;;;;11.52;7.50;;;20.30;65.40;;;;;;5054680;28;20440;-70
2021/09/13 06:40:49;;;;;;;14.27;7.35;;;20.30;65.90;;;;;;5054483;28;20449;-69
2021/09/13 06:43:16;;;;;;;17.73;7.55;;;20.40;65.10;;;;;;5053338;28;20021;-73
2021/09/13 06:45:44;;;;;;;13.52;7.85;;;20.50;64.90;;;;;;5054415;28;20554;-72
2021/09/13 06:48:14;;;;;;;14.30;8.68;;;20.60;64.80;;;;;;5048306;28;20059;-72
2021/09/13 06:50:42;;;;;;;12.07;8.52;;;20.70;64.50;;;;;;5036830;28;20035;-72
2021/09/13 06:53:09;;;;;;;10.20;6.93;;;20.70;64.00;;;;;;5036780;28;20032;-72
2021/09/13 06:55:39;;;;;;;15.98;8.70;;;20.80;63.90;;;;;;5054245;28;20021;-73
2021/09/13 06:58:06;;;;;;;21.48;9.57;;;20.90;63.70;;;;;;5049657;28;20029;-73
2021/09/13 07:00:32;;;;;;;19.08;11.70;;;21.00;63.60;;;;;;5049787;28;20025;-73
2021/09/13 07:02:59;;;;;;;17.55;10.85;;;21.00;63.40;;;;;;5054005;28;20048;-77
2021/09/13 07:05:25;;;;;;;17.45;9.35;;;21.10;63.20;;;;;;5036095;28;20021;-72
2021/09/13 07:07:51;;;;;;;19.05;8.75;;;21.20;63.20;;;;;;5053973;28;20017;-73
2021/09/13 07:10:17;;;;;;;19.73;9.75;;;21.30;63.10;;;;;;5054005;28;20032;-71
2021/09/13 07:12:44;;;;;;;13.32;9.10;;;21.40;62.90;;;;;;5054128;28;20151;-74
2021/09/13 07:15:10;;;;;;;18.58;10.43;;;21.50;62.90;;;;;;5052308;28;20033;-72
2021/09/13 07:17:36;;;;;;;17.42;10.55;;;21.60;62.60;;;;;;5053369;28;20493;-70
2021/09/13 07:20:02;;;;;;;22.23;12.38;;;21.60;62.30;;;;;;5045724;28;20036;-72
2021/09/13 07:22:28;;;;;;;20.17;11.60;;;21.70;61.90;;;;;;5053423;28;20470;-71
2021/09/13 07:24:53;;;;;;;19.38;10.32;;;21.70;61.60;;;;;;5053198;28;20056;-70
2021/09/13 07:27:19;;;;;;;16.45;10.85;;;21.80;61.50;;;;;;5052695;28;20098;-74
2021/09/13 07:29:45;;;;;;;21.08;12.02;;;21.90;61.40;;;;;;5053384;28;20032;-74
2021/09/13 07:32:11;;;;;;;27.00;12.77;;;21.90;61.00;;;;;;5034376;28;20045;-74
2021/09/13 07:34:37;;;;;;;22.05;13.45;;;22.00;60.90;;;;;;5035624;28;20352;-70
2021/09/13 07:37:03;;;;;;;24.23;13.98;;;22.00;60.90;;;;;;5053400;28;20478;-74
2021/09/13 07:39:29;;;;;;;19.80;12.60;;;22.10;60.60;;;;;;5053282;28;20104;-76
2021/09/13 07:41:56;;;;;;;22.98;13.68;;;22.10;60.60;;;;;;5053200;28;20048;-76
2021/09/13 07:44:22;;;;;;;21.33;14.52;;;22.20;60.60;;;;;;5035104;28;20484;-76
2021/09/13 07:46:48;;;;;;;23.63;14.57;;;22.30;60.50;;;;;;5032746;28;20026;-76
2021/09/13 07:49:14;;;;;;;27.25;14.57;;;22.30;60.40;;;;;;5053363;28;20024;-76
2021/09/13 07:51:40;;;;;;;21.90;14.38;;;22.40;60.40;;;;;;5035328;28;20108;-75
2021/09/13 07:54:06;;;;;;;24.00;14.02;;;22.50;60.20;;;;;;5051681;28;20418;-74
2021/09/13 07:56:35;;;;;;;23.63;14.52;;;22.60;60.00;;;;;;5052659;28;20028;-79
2021/09/13 07:59:03;;;;;;;34.95;15.75;;;22.70;60.00;;;;;;5035313;28;20021;-75
2021/09/13 08:01:29;;;;;;;30.08;16.20;;;22.80;59.70;;;;;;5053251;28;20067;-80
2021/09/13 08:03:55;;;;;;;30.33;16.25;;;22.90;59.60;;;;;;5035074;28;20028;-75
2021/09/13 08:06:21;;;;;;;22.77;15.23;;;23.00;59.30;;;;;;5052975;28;20470;-75
2021/09/13 08:08:47;;;;;;;27.48;15.07;;;23.10;59.20;;;;;;5052918;28;20122;-76
2021/09/13 08:11:13;;;;;;;30.35;14.60;;;23.20;58.80;;;;;;5052994;28;20155;-78
2021/09/13 08:13:40;;;;;;;27.10;15.35;;;23.30;58.60;;;;;;5052885;28;20106;-75
2021/09/13 08:16:10;;;;;;;24.50;15.18;;;23.40;58.50;;;;;;5052619;28;20028;-75
2021/09/13 08:18:39;;;;;;;24.48;15.77;;;23.50;58.10;;;;;;5034860;28;20484;-75
2021/09/13 08:21:07;;;;;;;26.08;15.63;;;23.50;57.70;;;;;;5018799;28;20029;-74
2021/09/13 08:23:34;;;;;;;23.50;14.02;;;23.60;57.80;;;;;;5052835;28;20024;-71
2021/09/13 08:26:05;;;;;;;23.00;13.27;;;23.60;57.70;;;;;;5052503;28;20044;-73
2021/09/13 08:28:32;;;;;;;21.02;13.15;;;23.60;57.60;;;;;;5052678;28;20017;-73
2021/09/13 08:30:58;;;;;;;22.98;13.13;;;23.60;57.60;;;;;;5052233;28;20054;-72
2021/09/13 08:33:23;;;;;;;18.85;14.23;;;23.60;57.50;;;;;;5052609;28;20021;-72
2021/09/13 08:35:50;;;;;;;21.75;13.20;;;23.60;57.20;;;;;;5052594;28;20094;-74
2021/09/13 08:38:16;;;;;;;24.88;13.20;;;23.60;57.30;;;;;;5052634;28;20021;-73
2021/09/13 08:40:42;;;;;;;20.30;13.00;;;23.70;57.20;;;;;;5034545;28;20196;-72
2021/09/13 08:43:10;;;;;;;20.55;12.05;;;23.70;57.20;;;;;;5052208;28;20074;-72
2021/09/13 08:45:44;;;;;;;18.83;13.48;;;23.70;57.40;;;;;;5052290;28;20108;-73
2021/09/13 08:48:25;;;;;;;21.48;13.32;;;23.80;57.30;;;;;;5039447;28;20087;-73
2021/09/13 08:53:21;;;;;;;19.75;12.05;;;23.90;57.20;;;;;;5051989;28;20100;-73
2021/09/13 08:55:50;;;;;;;27.85;13.52;;;24.00;57.00;;;;;;5052507;28;20041;-76
2021/09/13 08:58:21;;;;;;;20.00;11.95;;;24.00;56.60;;;;;;5034529;28;20021;-75
2021/09/13 09:00:47;;;;;;;21.50;13.75;;;24.10;56.80;;;;;;5052854;28;20029;-76
2021/09/13 09:03:15;;;;;;;20.98;12.02;;;24.20;56.30;;;;;;5052277;28;20024;-75
2021/09/13 09:05:43;;;;;;;16.67;12.18;;;24.20;56.10;;;;;;5052387;28;20456;-75
2021/09/13 09:08:10;;;;;;;19.15;11.40;;;24.30;56.10;;;;;;5056228;28;20087;-75
2021/09/13 09:10:37;;;;;;;19.90;11.68;;;24.40;56.10;;;;;;5056263;28;20021;-75
2021/09/13 09:13:10;;;;;;;18.85;12.90;;;24.40;55.90;;;;;;5056251;28;20021;-73
2021/09/13 09:16:02;;;;;;;16.55;11.85;;;24.50;55.70;;;;;;5043415;28;20378;-83
2021/09/13 09:18:49;;;;;;;16.83;10.52;;;24.60;55.60;;;;;;5055112;28;20033;-74
2021/09/13 09:21:34;;;;;;;17.48;11.77;;;24.70;55.80;;;;;;5039878;28;20017;-75
2021/09/13 09:24:04;;;;;;;15.93;11.15;;;24.80;55.50;;;;;;5055970;28;20041;-74
2021/09/13 09:26:31;;;;;;;18.52;11.88;;;24.90;55.20;;;;;;5055859;28;20033;-73
2021/09/13 09:28:59;;;;;;;20.95;13.18;;;25.00;55.00;;;;;;5055724;28;20355;-73
2021/09/13 09:31:36;;;;;;;20.77;12.80;;;25.00;54.60;;;;;;5055732;28;20061;-75
2021/09/13 09:34:19;;;;;;;20.83;12.43;;;25.10;54.60;;;;;;5055575;28;20092;-77
2021/09/13 09:37:00;;;;;;;15.98;11.13;;;25.20;54.40;;;;;;5038137;28;20424;-80
2021/09/13 09:39:31;;;;;;;18.40;11.50;;;25.30;54.40;;;;;;5055903;28;20536;-80
2021/09/13 09:41:57;;;;;;;16.90;11.25;;;25.40;54.20;;;;;;5037790;28;20123;-77
2021/09/13 09:44:24;;;;;;;15.48;10.48;;;25.50;53.90;;;;;;5055528;28;20116;-74
2021/09/13 09:46:52;;;;;;;16.85;11.02;;;25.60;54.00;;;;;;5055302;28;20020;-76
2021/09/13 09:49:20;;;;;;;16.13;10.30;;;25.70;53.70;;;;;;5055845;28;20035;-75
2021/09/13 09:51:51;;;;;;;11.48;9.00;;;25.80;53.60;;;;;;5055617;28;20059;-75
2021/09/13 09:54:24;;;;;;;12.13;9.95;;;25.90;53.50;;;;;;5055623;28;20054;-77
2021/09/13 09:57:11;;;;;;;14.20;10.38;;;26.00;53.10;;;;;;5055477;28;20025;-75
2021/09/13 09:59:40;;;;;;;14.32;9.15;;;26.10;52.70;;;;;;5055484;28;20071;-73
2021/09/13 10:02:14;;;;;;;11.63;7.50;;;26.20;52.70;;;;;;5055324;28;20379;-75
2021/09/13 10:04:40;;;;;;;9.38;6.47;;;26.30;52.40;;;;;;5055245;28;20021;-74
2021/09/13 10:07:07;;;;;;;6.93;4.72;;;26.40;51.30;;;;;;5037255;28;20116;-73
2021/09/13 10:09:33;;;;;;;7.00;4.13;;;26.50;50.50;;;;;;5055242;28;20043;-76
2021/09/13 10:12:06;;;;;;;6.10;4.60;;;26.60;50.70;;;;;;5055159;28;20100;-74
2021/09/13 10:14:33;;;;;;;10.35;5.78;;;26.60;50.60;;;;;;5054903;28;20025;-74
2021/09/13 10:16:59;;;;;;;6.53;5.00;;;26.80;50.30;;;;;;5054631;28;20033;-75
2021/09/13 10:19:27;;;;;;;5.13;4.03;;;26.90;50.60;;;;;;5055122;28;20020;-76
2021/09/13 10:21:54;;;;;;;6.55;4.07;;;26.90;50.30;;;;;;5054893;28;20025;-72
2021/09/13 10:24:40;;;;;;;5.43;4.18;;;27.00;49.70;;;;;;5055002;28;20126;-73
2021/09/13 10:27:09;;;;;;;5.88;3.83;;;27.10;49.30;;;;;;5038548;28;20071;-73
2021/09/13 10:29:35;;;;;;;4.55;3.55;;;27.10;49.40;;;;;;5054263;28;20031;-77
2021/09/13 10:32:02;;;;;;;5.00;3.67;;;27.20;48.60;;;;;;5048898;28;20044;-77
2021/09/13 10:34:52;;;;;;;5.63;3.72;;;27.20;46.80;;;;;;5044650;28;20474;-75
2021/09/13 10:37:23;;;;;;;5.13;4.25;;;27.20;47.60;;;;;;5036422;28;20048;-76
2021/09/13 10:39:58;;;;;;;7.70;4.30;;;27.30;47.00;;;;;;5053223;28;20025;-77
2021/09/13 10:42:39;;;;;;;6.18;4.32;;;27.30;46.50;;;;;;5053347;28;20127;-76
2021/09/13 10:45:24;;;;;;;5.90;4.10;;;27.40;46.40;;;;;;5045156;28;20130;-71
2021/09/13 10:48:01;;;;;;;5.82;3.90;;;27.40;46.70;;;;;;5052922;28;20025;-76
2021/09/13 10:50:33;;;;;;;5.28;4.25;;;27.40;46.20;;;;;;5053748;28;20378;-76
2021/09/13 10:53:02;;;;;;;4.18;3.70;;;27.40;46.70;;;;;;5053128;28;20398;-80
2021/09/13 10:55:37;;;;;;;4.65;3.67;;;27.40;46.60;;;;;;5053403;28;20058;-78
2021/09/13 10:58:09;;;;;;;4.55;3.72;;;27.40;45.70;;;;;;5053225;28;20033;-79
2021/09/13 11:00:40;;;;;;;5.22;3.50;;;27.40;45.60;;;;;;5053502;28;20031;-79
2021/09/13 11:06:02;;;;;;;3.40;3.10;;;27.40;46.00;;;;;;5052860;28;20086;-73
2021/09/13 11:08:28;;;;;;;10.70;4.55;;;27.40;46.00;;;;;;5052986;28;20090;-74
2021/09/13 11:10:54;;;;;;;7.00;4.22;;;27.40;45.30;;;;;;5053269;28;20536;-73
2021/09/13 11:13:20;;;;;;;4.43;3.80;;;27.40;45.20;;;;;;5053285;28;20096;-73
2021/09/13 11:15:49;;;;;;;4.40;3.38;;;27.40;45.10;;;;;;5052866;28;20029;-74
2021/09/13 11:18:34;;;;;;;6.45;3.28;;;27.40;45.10;;;;;;5052481;28;20096;-73
2021/09/13 11:21:29;;;;;;;4.57;3.30;;;27.40;45.00;;;;;;5052809;28;20036;-73
2021/09/13 11:24:02;;;;;;;;;;;27.40;45.10;;;;;;5035605;28;20029;-73
2021/09/13 11:26:38;;;;;;;6.50;4.57;;;27.50;46.50;;;;;;5052860;28;19908;-73
2021/09/13 11:29:09;;;;;;;3.97;3.45;;;27.50;45.00;;;;;;5035686;28;20009;-70
2021/09/13 11:31:39;;;;;;;4.60;3.92;;;27.60;45.30;;;;;;5052728;28;20510;-68
2021/09/13 11:34:13;;;;;;;5.68;3.85;;;27.70;44.60;;;;;;5033471;28;20379;-68
2021/09/13 11:36:49;;;;;;;5.60;3.70;;;27.70;45.50;;;;;;5049307;28;20437;-68
2021/09/13 11:39:15;;;;;;;5.43;3.78;;;27.70;44.50;;;;;;5052241;28;20370;-69
2021/09/13 11:41:56;;;;;;;5.93;3.70;;;27.80;45.10;;;;;;5034591;28;20375;-68
2021/09/13 11:44:22;;;;;;;4.13;3.05;;;27.80;44.10;;;;;;5052736;28;20025;-74
2021/09/13 11:47:05;;;;;;;3.38;2.90;;;27.80;43.50;;;;;;5050824;28;20025;-72
2021/09/13 11:49:33;;;;;;;4.32;3.10;;;27.90;43.30;;;;;;5051514;28;20028;-76
2021/09/13 11:52:11;;;;;;;6.13;3.35;;;27.90;43.00;;;;;;5051629;28;20186;-75
2021/09/13 11:54:49;;;;;;;3.78;2.72;;;27.90;42.40;;;;;;5052464;28;20167;-76
2021/09/13 11:57:23;;;;;;;3.58;2.97;;;28.00;42.60;;;;;;5041130;28;20032;-75
2021/09/13 11:59:58;;;;;;;3.88;2.80;;;28.10;41.10;;;;;;5048019;28;20048;-76
2021/09/13 12:02:25;;;;;;;2.92;2.20;;;28.10;41.10;;;;;;5049754;28;20074;-76
2021/09/13 12:04:52;;;;;;;4.07;2.33;;;28.20;40.00;;;;;;5051784;28;20028;-74
2021/09/13 12:07:18;;;;;;;2.65;1.83;;;28.30;39.90;;;;;;5052030;28;20134;-75
2021/09/13 12:09:46;;;;;;;4.28;2.53;;;28.40;38.60;;;;;;5051390;28;20104;-74
2021/09/13 12:12:16;;;;;;;2.38;2.17;;;28.40;38.80;;;;;;5051833;28;20521;-74
2021/09/13 12:14:43;;;;;;;4.95;3.10;;;28.50;39.70;;;;;;5051612;28;20031;-73
2021/09/13 12:17:17;;;;;;;4.05;2.88;;;28.50;39.20;;;;;;5051658;28;20096;-75
2021/09/13 12:19:48;;;;;;;7.70;2.47;;;28.50;39.50;;;;;;5034084;28;20024;-73
2021/09/13 12:22:14;;;;;;;3.15;2.58;;;28.50;38.90;;;;;;5051962;28;20036;-71
2021/09/13 12:24:43;;;;;;;4.07;3.20;;;28.60;39.20;;;;;;5051899;28;20148;-74
2021/09/13 12:27:24;;;;;;;4.05;2.75;;;28.60;39.40;;;;;;5051849;28;20488;-74
2021/09/13 12:29:58;;;;;;;5.38;3.40;;;28.50;39.50;;;;;;5033787;28;20021;-74
2021/09/13 12:32:27;;;;;;;3.67;3.30;;;28.50;39.20;;;;;;5051830;28;20040;-74
2021/09/13 12:35:07;;;;;;;4.28;2.58;;;28.50;39.70;;;;;;5051660;28;20102;-75
2021/09/13 12:37:38;;;;;;;4.15;2.90;;;28.60;39.80;;;;;;5052011;28;20025;-73
2021/09/13 12:40:11;;;;;;;5.43;3.22;;;28.60;39.10;;;;;;5052182;28;20021;-70
2021/09/13 12:42:55;;;;;;;4.97;3.85;;;28.60;39.80;;;;;;5052432;28;20017;-73
2021/09/13 12:45:21;;;;;;;;;;;28.60;39.40;;;;;;5038845;28;20029;-73
2021/09/13 12:48:00;;;;;;;5.80;2.80;;;28.70;40.80;;;;;;5051994;28;19944;-72
2021/09/13 12:50:32;;;;;;;6.90;2.83;;;28.70;39.00;;;;;;5052496;28;20029;-70
2021/09/13 12:53:00;;;;;;;5.72;3.67;;;28.80;38.60;;;;;;5052350;28;20502;-69
2021/09/13 12:55:28;;;;;;;5.63;3.22;;;28.80;39.00;;;;;;5052358;28;20040;-71